Huvudsida
METAR-TAF:

METAR-TAF

Flygplatser :

Jeddah, Saudiarabien

latitud: 21-42N, longitud: 039-11E, höjd: 15 m

Aktuellt väderrapport

Denna rapport gjordes för 1 timme och 2 minuter sedan, klockan 00:00 UTC
Vind 10 kt från nordost
Temperatur 17°C
Fuktighet 52%
Tryck 1018 hPa
Sikt 10 km eller mer
Inga moln under 1 500 m eller inga cumulonimbus

METAR: OEJN 260000Z 05010KT CAVOK 17/07 Q1018 NOSIG

Tid: 04:02 (01:02 UTC)

Väderprognos

Denna rapport gjordes för 2 timmar och 2 minuter sedan, klockan 23:00 UTC
Prognos gäller från 26 kl. 00 UTC till 27 kl. 06 UTC
Vind 10 kt från ost/nordost
Sikt: 7000 m
Få moln på en höjd av 4000 ft
Spridda moln på en höjd av 10000 ft
Blir
från 26 kl. 06 UTC till 26 kl. 08 UTC
Vind 18 kt från nord/nordväst
Blir
från 26 kl. 18 UTC till 26 kl. 20 UTC
Vind 10 kt från nord/nordost

TAF: OEJN 252300Z 2600/2706 06010KT 7000 FEW040 SCT100 BECMG 2606/2608 33018KT BECMG 2618/2620 02010KT

Aktuella väderrapporter och prognoser från 4000 flygplatser (METAR- och TAF-rapporter).

De tillgängliga stationerna syns som gula och röda prickar på kartan.

För musen över prickarna för att se namnen på stationerna.

Klicka sedan för att få väderrapporter och prognoser.

För att ändra kartan: Klicka på de gröna knapparna med ett svart kors på för att zooma in; den gröna knappen med ett streck på för att zooma ut; eller på de gröna pilarna för angränsande kartor.


METAR-TAF: